sensor_id;sensor_type;location;lat;lon;timestamp;P1;durP1;ratioP1;P2;durP2;ratioP2
45762;SDS011;37512;52.408;13.356;2022-12-01T00:01:57;79.38;;;30.45;;
45762;SDS011;37512;52.408;13.356;2022-12-01T00:06:03;75.90;;;28.98;;
45762;SDS011;37512;52.408;13.356;2022-12-01T00:10:10;72.32;;;26.10;;
45762;SDS011;37512;52.408;13.356;2022-12-01T00:14:27;69.97;;;27.85;;
45762;SDS011;37512;52.408;13.356;2022-12-01T00:18:28;48.45;;;17.13;;
45762;SDS011;37512;52.408;13.356;2022-12-01T00:22:30;78.30;;;26.83;;
45762;SDS011;37512;52.408;13.356;2022-12-01T00:26:31;62.05;;;25.80;;
45762;SDS011;37512;52.408;13.356;2022-12-01T00:30:33;70.82;;;26.42;;
45762;SDS011;37512;52.408;13.356;2022-12-01T00:34:34;78.47;;;29.23;;
45762;SDS011;37512;52.408;13.356;2022-12-01T00:38:38;71.88;;;25.35;;
45762;SDS011;37512;52.408;13.356;2022-12-01T00:42:39;66.85;;;26.23;;
45762;SDS011;37512;52.408;13.356;2022-12-01T00:46:41;69.35;;;27.25;;
45762;SDS011;37512;52.408;13.356;2022-12-01T00:50:42;60.67;;;24.88;;
45762;SDS011;37512;52.408;13.356;2022-12-01T00:54:44;64.45;;;24.17;;
45762;SDS011;37512;52.408;13.356;2022-12-01T00:58:46;71.90;;;25.20;;
45762;SDS011;37512;52.408;13.356;2022-12-01T01:02:47;72.13;;;27.92;;
45762;SDS011;37512;52.408;13.356;2022-12-01T01:06:49;63.80;;;22.63;;
45762;SDS011;37512;52.408;13.356;2022-12-01T01:10:51;64.95;;;23.67;;
45762;SDS011;37512;52.408;13.356;2022-12-01T01:14:52;66.68;;;25.02;;
45762;SDS011;37512;52.408;13.356;2022-12-01T01:18:54;66.57;;;25.23;;
45762;SDS011;37512;52.408;13.356;2022-12-01T01:22:55;63.30;;;23.88;;
45762;SDS011;37512;52.408;13.356;2022-12-01T01:26:57;64.68;;;24.90;;
45762;SDS011;37512;52.408;13.356;2022-12-01T01:31:03;69.53;;;25.20;;
45762;SDS011;37512;52.408;13.356;2022-12-01T01:35:05;61.90;;;25.20;;
45762;SDS011;37512;52.408;13.356;2022-12-01T01:39:08;63.17;;;24.48;;
45762;SDS011;37512;52.408;13.356;2022-12-01T01:43:13;71.30;;;25.95;;
45762;SDS011;37512;52.408;13.356;2022-12-01T01:47:16;68.82;;;25.63;;
45762;SDS011;37512;52.408;13.356;2022-12-01T01:51:32;73.28;;;30.10;;
45762;SDS011;37512;52.408;13.356;2022-12-01T01:55:37;65.72;;;26.85;;
45762;SDS011;37512;52.408;13.356;2022-12-01T01:59:43;68.35;;;27.70;;
45762;SDS011;37512;52.408;13.356;2022-12-01T02:03:49;68.47;;;26.35;;
45762;SDS011;37512;52.408;13.356;2022-12-01T02:07:53;58.58;;;23.08;;
45762;SDS011;37512;52.408;13.356;2022-12-01T02:16:13;66.43;;;24.38;;
45762;SDS011;37512;52.408;13.356;2022-12-01T02:33:36;63.78;;;22.52;;
45762;SDS011;37512;52.408;13.356;2022-12-01T02:37:46;51.92;;;21.42;;
45762;SDS011;37512;52.408;13.356;2022-12-01T02:42:00;70.85;;;25.10;;
45762;SDS011;37512;52.408;13.356;2022-12-01T02:46:09;61.60;;;24.10;;
45762;SDS011;37512;52.408;13.356;2022-12-01T02:50:15;73.47;;;25.52;;
45762;SDS011;37512;52.408;13.356;2022-12-01T02:54:17;68.10;;;25.48;;
45762;SDS011;37512;52.408;13.356;2022-12-01T02:58:20;63.90;;;24.95;;
45762;SDS011;37512;52.408;13.356;2022-12-01T03:11:12;71.93;;;27.08;;
45762;SDS011;37512;52.408;13.356;2022-12-01T03:19:39;73.65;;;25.80;;
45762;SDS011;37512;52.408;13.356;2022-12-01T03:23:46;80.45;;;26.27;;
45762;SDS011;37512;52.408;13.356;2022-12-01T03:27:50;80.22;;;30.63;;
45762;SDS011;37512;52.408;13.356;2022-12-01T03:32:24;69.30;;;26.50;;
45762;SDS011;37512;52.408;13.356;2022-12-01T03:36:36;55.90;;;22.27;;
45762;SDS011;37512;52.408;13.356;2022-12-01T03:40:42;71.47;;;24.35;;
45762;SDS011;37512;52.408;13.356;2022-12-01T03:44:51;54.90;;;21.55;;
45762;SDS011;37512;52.408;13.356;2022-12-01T03:48:55;79.97;;;25.83;;
45762;SDS011;37512;52.408;13.356;2022-12-01T03:57:16;62.67;;;24.65;;
45762;SDS011;37512;52.408;13.356;2022-12-01T04:01:28;76.90;;;27.50;;
45762;SDS011;37512;52.408;13.356;2022-12-01T04:05:33;77.78;;;24.73;;
45762;SDS011;37512;52.408;13.356;2022-12-01T04:09:35;75.25;;;27.33;;
45762;SDS011;37512;52.408;13.356;2022-12-01T04:13:36;75.93;;;27.23;;
45762;SDS011;37512;52.408;13.356;2022-12-01T04:17:38;67.72;;;28.63;;
45762;SDS011;37512;52.408;13.356;2022-12-01T04:21:40;70.30;;;25.75;;
45762;SDS011;37512;52.408;13.356;2022-12-01T04:25:41;60.22;;;23.40;;
45762;SDS011;37512;52.408;13.356;2022-12-01T04:29:43;79.70;;;27.63;;
45762;SDS011;37512;52.408;13.356;2022-12-01T04:33:44;69.95;;;25.08;;
45762;SDS011;37512;52.408;13.356;2022-12-01T04:37:46;70.30;;;27.88;;
45762;SDS011;37512;52.408;13.356;2022-12-01T04:41:47;76.47;;;30.15;;
45762;SDS011;37512;52.408;13.356;2022-12-01T04:45:49;77.85;;;28.55;;
45762;SDS011;37512;52.408;13.356;2022-12-01T04:49:50;74.05;;;30.02;;
45762;SDS011;37512;52.408;13.356;2022-12-01T04:53:52;80.72;;;30.45;;
45762;SDS011;37512;52.408;13.356;2022-12-01T04:57:53;72.00;;;27.85;;
45762;SDS011;37512;52.408;13.356;2022-12-01T05:01:55;78.63;;;30.83;;
45762;SDS011;37512;52.408;13.356;2022-12-01T05:06:03;66.70;;;26.48;;
45762;SDS011;37512;52.408;13.356;2022-12-01T05:10:07;66.32;;;27.50;;
45762;SDS011;37512;52.408;13.356;2022-12-01T05:14:08;52.05;;;21.45;;
45762;SDS011;37512;52.408;13.356;2022-12-01T05:18:10;56.95;;;24.52;;
45762;SDS011;37512;52.408;13.356;2022-12-01T05:22:11;65.70;;;25.85;;
45762;SDS011;37512;52.408;13.356;2022-12-01T05:26:13;61.90;;;25.92;;
45762;SDS011;37512;52.408;13.356;2022-12-01T05:30:14;65.82;;;28.10;;
45762;SDS011;37512;52.408;13.356;2022-12-01T05:34:16;63.72;;;25.67;;
45762;SDS011;37512;52.408;13.356;2022-12-01T05:38:18;73.60;;;28.55;;
45762;SDS011;37512;52.408;13.356;2022-12-01T05:42:19;70.05;;;28.25;;
45762;SDS011;37512;52.408;13.356;2022-12-01T05:46:21;70.15;;;27.73;;
45762;SDS011;37512;52.408;13.356;2022-12-01T05:50:23;73.88;;;27.88;;
45762;SDS011;37512;52.408;13.356;2022-12-01T05:54:25;72.50;;;25.58;;
45762;SDS011;37512;52.408;13.356;2022-12-01T05:58:29;65.55;;;27.77;;
45762;SDS011;37512;52.408;13.356;2022-12-01T06:02:31;68.88;;;28.38;;
45762;SDS011;37512;52.408;13.356;2022-12-01T06:06:32;62.60;;;26.33;;
45762;SDS011;37512;52.408;13.356;2022-12-01T06:10:34;76.57;;;29.52;;
45762;SDS011;37512;52.408;13.356;2022-12-01T06:14:35;64.50;;;26.38;;
45762;SDS011;37512;52.408;13.356;2022-12-01T06:18:37;75.30;;;27.88;;
45762;SDS011;37512;52.408;13.356;2022-12-01T06:22:41;67.82;;;27.70;;
45762;SDS011;37512;52.408;13.356;2022-12-01T06:26:43;65.22;;;26.45;;
45762;SDS011;37512;52.408;13.356;2022-12-01T06:30:44;66.00;;;27.00;;
45762;SDS011;37512;52.408;13.356;2022-12-01T06:34:46;84.15;;;29.05;;
45762;SDS011;37512;52.408;13.356;2022-12-01T06:38:47;75.90;;;28.67;;
45762;SDS011;37512;52.408;13.356;2022-12-01T06:42:49;74.60;;;29.15;;
45762;SDS011;37512;52.408;13.356;2022-12-01T06:46:50;83.25;;;30.17;;
45762;SDS011;37512;52.408;13.356;2022-12-01T06:50:55;84.32;;;32.30;;
45762;SDS011;37512;52.408;13.356;2022-12-01T06:54:57;65.97;;;26.40;;
45762;SDS011;37512;52.408;13.356;2022-12-01T06:59:00;63.67;;;26.88;;
45762;SDS011;37512;52.408;13.356;2022-12-01T07:03:02;66.45;;;27.88;;
45762;SDS011;37512;52.408;13.356;2022-12-01T07:07:04;72.85;;;29.83;;
45762;SDS011;37512;52.408;13.356;2022-12-01T07:11:06;69.40;;;27.77;;
45762;SDS011;37512;52.408;13.356;2022-12-01T07:15:10;71.30;;;25.98;;
45762;SDS011;37512;52.408;13.356;2022-12-01T07:19:11;64.32;;;26.35;;
45762;SDS011;37512;52.408;13.356;2022-12-01T07:23:13;66.05;;;28.65;;
45762;SDS011;37512;52.408;13.356;2022-12-01T07:27:14;76.82;;;29.48;;
45762;SDS011;37512;52.408;13.356;2022-12-01T07:31:16;74.93;;;29.98;;
45762;SDS011;37512;52.408;13.356;2022-12-01T07:35:19;71.97;;;31.30;;
45762;SDS011;37512;52.408;13.356;2022-12-01T07:39:20;70.28;;;28.77;;
45762;SDS011;37512;52.408;13.356;2022-12-01T07:43:22;74.60;;;31.20;;
45762;SDS011;37512;52.408;13.356;2022-12-01T07:47:23;72.97;;;30.33;;
45762;SDS011;37512;52.408;13.356;2022-12-01T07:51:25;56.72;;;27.42;;
45762;SDS011;37512;52.408;13.356;2022-12-01T07:55:27;70.38;;;27.80;;
45762;SDS011;37512;52.408;13.356;2022-12-01T07:59:28;73.97;;;30.20;;
45762;SDS011;37512;52.408;13.356;2022-12-01T08:03:30;73.03;;;30.38;;
45762;SDS011;37512;52.408;13.356;2022-12-01T08:07:31;74.78;;;30.67;;
45762;SDS011;37512;52.408;13.356;2022-12-01T08:11:33;64.95;;;28.08;;
45762;SDS011;37512;52.408;13.356;2022-12-01T08:15:35;85.00;;;31.70;;
45762;SDS011;37512;52.408;13.356;2022-12-01T08:19:37;74.43;;;29.38;;
45762;SDS011;37512;52.408;13.356;2022-12-01T08:23:39;92.90;;;34.30;;
45762;SDS011;37512;52.408;13.356;2022-12-01T08:27:42;91.47;;;31.20;;
45762;SDS011;37512;52.408;13.356;2022-12-01T08:31:43;94.80;;;32.60;;
45762;SDS011;37512;52.408;13.356;2022-12-01T08:35:45;92.07;;;29.98;;
45762;SDS011;37512;52.408;13.356;2022-12-01T08:39:46;72.88;;;30.02;;
45762;SDS011;37512;52.408;13.356;2022-12-01T08:43:48;100.63;;;35.55;;
45762;SDS011;37512;52.408;13.356;2022-12-01T08:47:58;95.70;;;35.25;;
45762;SDS011;37512;52.408;13.356;2022-12-01T08:52:00;110.40;;;38.05;;
45762;SDS011;37512;52.408;13.356;2022-12-01T08:56:03;90.40;;;34.50;;
45762;SDS011;37512;52.408;13.356;2022-12-01T09:00:07;108.03;;;39.45;;
45762;SDS011;37512;52.408;13.356;2022-12-01T09:04:09;107.78;;;38.67;;
45762;SDS011;37512;52.408;13.356;2022-12-01T09:08:11;112.43;;;38.72;;
45762;SDS011;37512;52.408;13.356;2022-12-01T09:12:30;117.53;;;40.53;;
45762;SDS011;37512;52.408;13.356;2022-12-01T09:16:32;96.55;;;36.08;;
45762;SDS011;37512;52.408;13.356;2022-12-01T09:20:34;105.13;;;39.17;;
45762;SDS011;37512;52.408;13.356;2022-12-01T09:24:35;107.53;;;37.42;;
45762;SDS011;37512;52.408;13.356;2022-12-01T09:28:37;107.32;;;38.17;;
45762;SDS011;37512;52.408;13.356;2022-12-01T09:32:39;115.18;;;39.80;;
45762;SDS011;37512;52.408;13.356;2022-12-01T09:36:40;110.05;;;41.67;;
45762;SDS011;37512;52.408;13.356;2022-12-01T09:40:42;110.32;;;41.35;;
45762;SDS011;37512;52.408;13.356;2022-12-01T09:44:44;105.90;;;39.20;;
45762;SDS011;37512;52.408;13.356;2022-12-01T09:48:57;108.28;;;39.17;;
45762;SDS011;37512;52.408;13.356;2022-12-01T09:53:05;105.88;;;39.05;;
45762;SDS011;37512;52.408;13.356;2022-12-01T09:57:16;89.38;;;35.22;;
45762;SDS011;37512;52.408;13.356;2022-12-01T10:01:30;98.20;;;36.78;;
45762;SDS011;37512;52.408;13.356;2022-12-01T10:05:47;101.63;;;38.58;;
45762;SDS011;37512;52.408;13.356;2022-12-01T10:10:13;84.03;;;33.90;;
45762;SDS011;37512;52.408;13.356;2022-12-01T10:14:18;104.30;;;41.55;;
45762;SDS011;37512;52.408;13.356;2022-12-01T10:31:28;108.93;;;39.97;;
45762;SDS011;37512;52.408;13.356;2022-12-01T10:35:37;99.35;;;37.75;;
45762;SDS011;37512;52.408;13.356;2022-12-01T10:39:40;90.35;;;35.50;;
45762;SDS011;37512;52.408;13.356;2022-12-01T10:43:46;97.05;;;36.45;;
45762;SDS011;37512;52.408;13.356;2022-12-01T10:48:06;99.75;;;37.97;;
45762;SDS011;37512;52.408;13.356;2022-12-01T10:52:09;94.70;;;37.05;;
45762;SDS011;37512;52.408;13.356;2022-12-01T10:56:28;89.88;;;37.45;;
45762;SDS011;37512;52.408;13.356;2022-12-01T11:00:33;84.18;;;33.80;;
45762;SDS011;37512;52.408;13.356;2022-12-01T11:04:59;89.80;;;35.80;;
45762;SDS011;37512;52.408;13.356;2022-12-01T11:09:04;88.80;;;36.83;;
45762;SDS011;37512;52.408;13.356;2022-12-01T11:13:32;103.68;;;38.58;;
45762;SDS011;37512;52.408;13.356;2022-12-01T11:17:40;78.95;;;34.10;;
45762;SDS011;37512;52.408;13.356;2022-12-01T11:21:46;78.57;;;33.88;;
45762;SDS011;37512;52.408;13.356;2022-12-01T11:30:20;92.00;;;36.63;;
45762;SDS011;37512;52.408;13.356;2022-12-01T11:34:24;87.75;;;37.17;;
45762;SDS011;37512;52.408;13.356;2022-12-01T11:38:31;89.25;;;35.03;;
45762;SDS011;37512;52.408;13.356;2022-12-01T11:42:34;95.85;;;35.53;;
45762;SDS011;37512;52.408;13.356;2022-12-01T11:46:37;85.88;;;34.97;;
45762;SDS011;37512;52.408;13.356;2022-12-01T12:03:35;78.80;;;32.35;;
45762;SDS011;37512;52.408;13.356;2022-12-01T12:20:48;64.82;;;29.63;;
45762;SDS011;37512;52.408;13.356;2022-12-01T12:25:14;72.65;;;32.33;;
45762;SDS011;37512;52.408;13.356;2022-12-01T12:42:18;57.03;;;25.30;;
45762;SDS011;37512;52.408;13.356;2022-12-01T12:55:02;56.65;;;26.27;;
45762;SDS011;37512;52.408;13.356;2022-12-01T12:59:14;58.17;;;26.08;;
45762;SDS011;37512;52.408;13.356;2022-12-01T13:12:05;65.20;;;27.77;;
45762;SDS011;37512;52.408;13.356;2022-12-01T13:16:11;58.22;;;25.90;;
45762;SDS011;37512;52.408;13.356;2022-12-01T13:20:18;56.58;;;26.63;;
45762;SDS011;37512;52.408;13.356;2022-12-01T13:24:27;66.47;;;28.15;;
45762;SDS011;37512;52.408;13.356;2022-12-01T13:28:35;55.47;;;26.42;;
45762;SDS011;37512;52.408;13.356;2022-12-01T13:32:40;72.78;;;29.52;;
45762;SDS011;37512;52.408;13.356;2022-12-01T13:36:47;66.72;;;29.35;;
45762;SDS011;37512;52.408;13.356;2022-12-01T13:45:34;58.70;;;27.60;;
45762;SDS011;37512;52.408;13.356;2022-12-01T13:49:41;60.67;;;27.23;;
45762;SDS011;37512;52.408;13.356;2022-12-01T13:54:00;59.85;;;26.58;;
45762;SDS011;37512;52.408;13.356;2022-12-01T14:02:15;56.92;;;26.67;;
45762;SDS011;37512;52.408;13.356;2022-12-01T14:10:31;57.92;;;24.75;;
45762;SDS011;37512;52.408;13.356;2022-12-01T14:14:35;53.78;;;25.23;;
45762;SDS011;37512;52.408;13.356;2022-12-01T14:18:41;48.22;;;23.23;;
45762;SDS011;37512;52.408;13.356;2022-12-01T14:27:40;63.87;;;26.33;;
45762;SDS011;37512;52.408;13.356;2022-12-01T14:35:46;54.90;;;24.42;;
45762;SDS011;37512;52.408;13.356;2022-12-01T14:43:50;59.15;;;25.60;;
45762;SDS011;37512;52.408;13.356;2022-12-01T14:48:13;60.38;;;24.60;;
45762;SDS011;37512;52.408;13.356;2022-12-01T14:56:29;56.65;;;27.30;;
45762;SDS011;37512;52.408;13.356;2022-12-01T15:00:33;56.05;;;25.20;;
45762;SDS011;37512;52.408;13.356;2022-12-01T15:13:43;53.47;;;25.88;;
45762;SDS011;37512;52.408;13.356;2022-12-01T15:17:48;56.08;;;24.35;;
45762;SDS011;37512;52.408;13.356;2022-12-01T15:21:50;54.05;;;24.15;;
45762;SDS011;37512;52.408;13.356;2022-12-01T15:25:52;51.58;;;23.20;;
45762;SDS011;37512;52.408;13.356;2022-12-01T15:29:55;52.70;;;26.13;;
45762;SDS011;37512;52.408;13.356;2022-12-01T15:33:58;53.38;;;23.58;;
45762;SDS011;37512;52.408;13.356;2022-12-01T15:38:00;54.10;;;24.95;;
45762;SDS011;37512;52.408;13.356;2022-12-01T15:42:02;48.72;;;23.13;;
45762;SDS011;37512;52.408;13.356;2022-12-01T15:46:14;48.72;;;23.17;;
45762;SDS011;37512;52.408;13.356;2022-12-01T15:54:47;57.40;;;25.35;;
45762;SDS011;37512;52.408;13.356;2022-12-01T15:58:50;55.03;;;23.73;;
45762;SDS011;37512;52.408;13.356;2022-12-01T16:02:55;49.42;;;24.50;;
45762;SDS011;37512;52.408;13.356;2022-12-01T16:07:05;57.25;;;24.95;;
45762;SDS011;37512;52.408;13.356;2022-12-01T16:15:18;49.20;;;24.85;;
45762;SDS011;37512;52.408;13.356;2022-12-01T16:19:24;54.70;;;25.70;;
45762;SDS011;37512;52.408;13.356;2022-12-01T16:23:28;58.03;;;25.63;;
45762;SDS011;37512;52.408;13.356;2022-12-01T16:27:32;58.35;;;27.00;;
45762;SDS011;37512;52.408;13.356;2022-12-01T16:31:45;66.38;;;27.42;;
45762;SDS011;37512;52.408;13.356;2022-12-01T16:36:07;57.33;;;25.05;;
45762;SDS011;37512;52.408;13.356;2022-12-01T16:40:09;60.72;;;27.60;;
45762;SDS011;37512;52.408;13.356;2022-12-01T16:44:12;63.17;;;28.30;;
45762;SDS011;37512;52.408;13.356;2022-12-01T16:48:29;59.83;;;26.30;;
45762;SDS011;37512;52.408;13.356;2022-12-01T16:52:31;62.13;;;26.65;;
45762;SDS011;37512;52.408;13.356;2022-12-01T16:56:48;64.53;;;28.90;;
45762;SDS011;37512;52.408;13.356;2022-12-01T17:00:50;66.85;;;31.08;;
45762;SDS011;37512;52.408;13.356;2022-12-01T17:04:55;64.28;;;27.48;;
45762;SDS011;37512;52.408;13.356;2022-12-01T17:08:56;65.90;;;29.85;;
45762;SDS011;37512;52.408;13.356;2022-12-01T17:12:58;57.63;;;26.48;;
45762;SDS011;37512;52.408;13.356;2022-12-01T17:16:59;75.25;;;29.88;;
45762;SDS011;37512;52.408;13.356;2022-12-01T17:21:02;69.65;;;29.33;;
45762;SDS011;37512;52.408;13.356;2022-12-01T17:25:08;64.05;;;29.77;;
45762;SDS011;37512;52.408;13.356;2022-12-01T17:29:10;64.22;;;28.80;;
45762;SDS011;37512;52.408;13.356;2022-12-01T17:33:11;61.72;;;27.45;;
45762;SDS011;37512;52.408;13.356;2022-12-01T17:37:13;68.72;;;30.30;;
45762;SDS011;37512;52.408;13.356;2022-12-01T17:41:30;66.57;;;29.58;;
45762;SDS011;37512;52.408;13.356;2022-12-01T17:45:44;59.10;;;26.60;;
45762;SDS011;37512;52.408;13.356;2022-12-01T17:49:46;64.65;;;29.35;;
45762;SDS011;37512;52.408;13.356;2022-12-01T17:53:47;59.58;;;26.63;;
45762;SDS011;37512;52.408;13.356;2022-12-01T17:57:49;61.65;;;27.67;;
45762;SDS011;37512;52.408;13.356;2022-12-01T18:01:50;66.20;;;29.48;;
45762;SDS011;37512;52.408;13.356;2022-12-01T18:05:53;64.13;;;27.90;;
45762;SDS011;37512;52.408;13.356;2022-12-01T18:09:55;64.60;;;31.17;;
45762;SDS011;37512;52.408;13.356;2022-12-01T18:13:57;59.33;;;28.17;;
45762;SDS011;37512;52.408;13.356;2022-12-01T18:18:00;64.97;;;26.52;;
45762;SDS011;37512;52.408;13.356;2022-12-01T18:22:01;59.38;;;28.42;;
45762;SDS011;37512;52.408;13.356;2022-12-01T18:26:04;58.50;;;27.45;;
45762;SDS011;37512;52.408;13.356;2022-12-01T18:30:14;62.00;;;27.25;;
45762;SDS011;37512;52.408;13.356;2022-12-01T18:34:15;63.05;;;27.77;;
45762;SDS011;37512;52.408;13.356;2022-12-01T18:38:17;62.30;;;28.23;;
45762;SDS011;37512;52.408;13.356;2022-12-01T18:42:20;63.53;;;29.38;;
45762;SDS011;37512;52.408;13.356;2022-12-01T18:46:21;67.47;;;28.95;;
45762;SDS011;37512;52.408;13.356;2022-12-01T18:50:26;60.72;;;29.58;;
45762;SDS011;37512;52.408;13.356;2022-12-01T18:54:27;65.20;;;29.45;;
45762;SDS011;37512;52.408;13.356;2022-12-01T18:58:29;68.32;;;28.67;;
45762;SDS011;37512;52.408;13.356;2022-12-01T19:02:31;58.30;;;27.67;;
45762;SDS011;37512;52.408;13.356;2022-12-01T19:06:34;66.53;;;31.95;;
45762;SDS011;37512;52.408;13.356;2022-12-01T19:10:36;65.70;;;26.92;;
45762;SDS011;37512;52.408;13.356;2022-12-01T19:14:38;60.03;;;27.77;;
45762;SDS011;37512;52.408;13.356;2022-12-01T19:18:39;64.78;;;28.30;;
45762;SDS011;37512;52.408;13.356;2022-12-01T19:22:58;59.67;;;26.48;;
45762;SDS011;37512;52.408;13.356;2022-12-01T19:27:00;62.40;;;27.70;;
45762;SDS011;37512;52.408;13.356;2022-12-01T19:31:09;60.00;;;26.90;;
45762;SDS011;37512;52.408;13.356;2022-12-01T19:35:15;54.80;;;26.20;;
45762;SDS011;37512;52.408;13.356;2022-12-01T19:39:19;55.90;;;27.35;;
45762;SDS011;37512;52.408;13.356;2022-12-01T19:43:21;59.08;;;27.65;;
45762;SDS011;37512;52.408;13.356;2022-12-01T19:47:25;58.58;;;28.05;;
45762;SDS011;37512;52.408;13.356;2022-12-01T19:51:31;61.60;;;26.83;;
45762;SDS011;37512;52.408;13.356;2022-12-01T19:55:37;58.15;;;28.30;;
45762;SDS011;37512;52.408;13.356;2022-12-01T19:59:42;73.07;;;33.53;;
45762;SDS011;37512;52.408;13.356;2022-12-01T20:03:50;65.90;;;29.98;;
45762;SDS011;37512;52.408;13.356;2022-12-01T20:07:52;57.90;;;26.92;;
45762;SDS011;37512;52.408;13.356;2022-12-01T20:11:54;62.33;;;29.02;;
45762;SDS011;37512;52.408;13.356;2022-12-01T20:16:02;67.40;;;28.02;;
45762;SDS011;37512;52.408;13.356;2022-12-01T20:20:08;61.08;;;29.10;;
45762;SDS011;37512;52.408;13.356;2022-12-01T20:24:14;61.78;;;28.65;;
45762;SDS011;37512;52.408;13.356;2022-12-01T20:28:25;60.20;;;27.45;;
45762;SDS011;37512;52.408;13.356;2022-12-01T20:32:28;64.45;;;30.20;;
45762;SDS011;37512;52.408;13.356;2022-12-01T20:36:29;67.30;;;30.13;;
45762;SDS011;37512;52.408;13.356;2022-12-01T20:40:31;60.85;;;28.23;;
45762;SDS011;37512;52.408;13.356;2022-12-01T20:44:34;59.25;;;28.58;;
45762;SDS011;37512;52.408;13.356;2022-12-01T20:48:36;54.90;;;24.67;;
45762;SDS011;37512;52.408;13.356;2022-12-01T20:52:38;61.15;;;27.85;;
45762;SDS011;37512;52.408;13.356;2022-12-01T20:56:40;55.20;;;26.70;;
45762;SDS011;37512;52.408;13.356;2022-12-01T21:00:42;60.47;;;24.77;;
45762;SDS011;37512;52.408;13.356;2022-12-01T21:04:46;61.80;;;27.35;;
45762;SDS011;37512;52.408;13.356;2022-12-01T21:08:49;84.90;;;39.15;;
45762;SDS011;37512;52.408;13.356;2022-12-01T21:12:52;61.03;;;28.15;;
45762;SDS011;37512;52.408;13.356;2022-12-01T21:21:30;60.60;;;27.00;;
45762;SDS011;37512;52.408;13.356;2022-12-01T21:25:36;57.50;;;25.70;;
45762;SDS011;37512;52.408;13.356;2022-12-01T21:29:45;59.78;;;28.55;;
45762;SDS011;37512;52.408;13.356;2022-12-01T21:33:50;54.27;;;27.30;;
45762;SDS011;37512;52.408;13.356;2022-12-01T21:37:53;64.72;;;27.58;;
45762;SDS011;37512;52.408;13.356;2022-12-01T21:42:12;54.75;;;27.05;;
45762;SDS011;37512;52.408;13.356;2022-12-01T21:46:16;52.67;;;25.98;;
45762;SDS011;37512;52.408;13.356;2022-12-01T21:50:20;58.20;;;29.08;;
45762;SDS011;37512;52.408;13.356;2022-12-01T21:54:24;59.97;;;26.60;;
45762;SDS011;37512;52.408;13.356;2022-12-01T21:58:26;59.92;;;29.73;;
45762;SDS011;37512;52.408;13.356;2022-12-01T22:03:34;61.53;;;27.55;;
45762;SDS011;37512;52.408;13.356;2022-12-01T22:07:08;50.45;;;24.42;;
45762;SDS011;37512;52.408;13.356;2022-12-01T22:15:35;61.65;;;26.13;;
45762;SDS011;37512;52.408;13.356;2022-12-01T22:19:43;54.03;;;27.25;;
45762;SDS011;37512;52.408;13.356;2022-12-01T22:24:13;50.55;;;24.80;;
45762;SDS011;37512;52.408;13.356;2022-12-01T22:28:22;56.88;;;25.27;;
45762;SDS011;37512;52.408;13.356;2022-12-01T22:36:48;53.40;;;25.23;;
45762;SDS011;37512;52.408;13.356;2022-12-01T22:45:20;49.05;;;25.15;;
45762;SDS011;37512;52.408;13.356;2022-12-01T22:49:24;49.63;;;25.27;;
45762;SDS011;37512;52.408;13.356;2022-12-01T22:53:29;54.33;;;25.10;;
45762;SDS011;37512;52.408;13.356;2022-12-01T22:57:31;58.40;;;25.58;;
45762;SDS011;37512;52.408;13.356;2022-12-01T23:01:35;52.92;;;25.13;;
45762;SDS011;37512;52.408;13.356;2022-12-01T23:05:43;53.00;;;26.08;;
45762;SDS011;37512;52.408;13.356;2022-12-01T23:09:45;56.88;;;26.52;;
45762;SDS011;37512;52.408;13.356;2022-12-01T23:13:47;51.38;;;23.88;;
45762;SDS011;37512;52.408;13.356;2022-12-01T23:17:48;54.95;;;25.80;;
45762;SDS011;37512;52.408;13.356;2022-12-01T23:21:50;50.33;;;24.23;;
45762;SDS011;37512;52.408;13.356;2022-12-01T23:25:52;54.53;;;23.23;;
45762;SDS011;37512;52.408;13.356;2022-12-01T23:29:54;51.28;;;25.23;;
45762;SDS011;37512;52.408;13.356;2022-12-01T23:33:56;56.22;;;24.65;;
45762;SDS011;37512;52.408;13.356;2022-12-01T23:37:57;52.20;;;25.08;;
45762;SDS011;37512;52.408;13.356;2022-12-01T23:41:59;54.88;;;25.60;;
45762;SDS011;37512;52.408;13.356;2022-12-01T23:46:02;50.53;;;24.60;;
45762;SDS011;37512;52.408;13.356;2022-12-01T23:50:12;53.10;;;24.50;;
45762;SDS011;37512;52.408;13.356;2022-12-01T23:58:33;49.88;;;23.75;;
